sensor_id;sensor_type;location;lat;lon;timestamp;P1;durP1;ratioP1;P2;durP2;ratioP2
66893;SDS011;53801;55.786;49.142;2022-11-20T00:01:47;9.35;;;2.85;;
66893;SDS011;53801;55.786;49.142;2022-11-20T00:04:12;7.93;;;1.97;;
66893;SDS011;53801;55.786;49.142;2022-11-20T00:06:38;9.40;;;3.03;;
66893;SDS011;53801;55.786;49.142;2022-11-20T00:09:03;8.83;;;2.43;;
66893;SDS011;53801;55.786;49.142;2022-11-20T00:11:30;10.27;;;1.77;;
66893;SDS011;53801;55.786;49.142;2022-11-20T00:13:57;6.70;;;1.80;;
66893;SDS011;53801;55.786;49.142;2022-11-20T00:16:23;17.13;;;3.25;;
66893;SDS011;53801;55.786;49.142;2022-11-20T00:18:49;6.43;;;1.88;;
66893;SDS011;53801;55.786;49.142;2022-11-20T00:21:16;8.35;;;2.63;;
66893;SDS011;53801;55.786;49.142;2022-11-20T00:23:42;13.03;;;2.67;;
66893;SDS011;53801;55.786;49.142;2022-11-20T00:26:15;12.07;;;2.47;;
66893;SDS011;53801;55.786;49.142;2022-11-20T00:28:41;6.95;;;2.10;;
66893;SDS011;53801;55.786;49.142;2022-11-20T00:31:08;5.63;;;1.80;;
66893;SDS011;53801;55.786;49.142;2022-11-20T00:33:34;7.32;;;2.53;;
66893;SDS011;53801;55.786;49.142;2022-11-20T00:36:03;11.82;;;2.42;;
66893;SDS011;53801;55.786;49.142;2022-11-20T00:38:29;8.38;;;2.03;;
66893;SDS011;53801;55.786;49.142;2022-11-20T00:40:58;10.33;;;2.53;;
66893;SDS011;53801;55.786;49.142;2022-11-20T00:43:24;11.02;;;2.85;;
66893;SDS011;53801;55.786;49.142;2022-11-20T00:45:50;8.77;;;3.00;;
66893;SDS011;53801;55.786;49.142;2022-11-20T00:48:15;8.05;;;2.03;;
66893;SDS011;53801;55.786;49.142;2022-11-20T00:50:41;8.67;;;2.37;;
66893;SDS011;53801;55.786;49.142;2022-11-20T00:53:07;7.70;;;2.80;;
66893;SDS011;53801;55.786;49.142;2022-11-20T00:55:32;8.63;;;2.67;;
66893;SDS011;53801;55.786;49.142;2022-11-20T00:57:58;5.87;;;1.83;;
66893;SDS011;53801;55.786;49.142;2022-11-20T01:00:23;10.02;;;3.17;;
66893;SDS011;53801;55.786;49.142;2022-11-20T01:02:48;7.07;;;2.22;;
66893;SDS011;53801;55.786;49.142;2022-11-20T01:05:14;5.73;;;1.20;;
66893;SDS011;53801;55.786;49.142;2022-11-20T01:07:39;8.63;;;2.57;;
66893;SDS011;53801;55.786;49.142;2022-11-20T01:10:05;10.53;;;3.17;;
66893;SDS011;53801;55.786;49.142;2022-11-20T01:12:30;9.63;;;2.93;;
66893;SDS011;53801;55.786;49.142;2022-11-20T01:14:56;11.43;;;2.95;;
66893;SDS011;53801;55.786;49.142;2022-11-20T01:17:21;10.60;;;2.50;;
66893;SDS011;53801;55.786;49.142;2022-11-20T01:19:48;11.50;;;2.40;;
66893;SDS011;53801;55.786;49.142;2022-11-20T01:22:13;12.25;;;3.40;;
66893;SDS011;53801;55.786;49.142;2022-11-20T01:24:39;6.68;;;2.38;;
66893;SDS011;53801;55.786;49.142;2022-11-20T01:27:04;11.73;;;3.30;;
66893;SDS011;53801;55.786;49.142;2022-11-20T01:29:30;12.97;;;3.33;;
66893;SDS011;53801;55.786;49.142;2022-11-20T01:31:55;11.77;;;3.20;;
66893;SDS011;53801;55.786;49.142;2022-11-20T01:34:23;8.40;;;2.20;;
66893;SDS011;53801;55.786;49.142;2022-11-20T01:36:50;9.65;;;3.47;;
66893;SDS011;53801;55.786;49.142;2022-11-20T01:39:20;7.87;;;3.00;;
66893;SDS011;53801;55.786;49.142;2022-11-20T01:41:46;8.25;;;2.60;;
66893;SDS011;53801;55.786;49.142;2022-11-20T01:44:43;11.43;;;2.55;;
66893;SDS011;53801;55.786;49.142;2022-11-20T01:47:10;7.80;;;2.53;;
66893;SDS011;53801;55.786;49.142;2022-11-20T01:52:30;9.75;;;2.25;;
66893;SDS011;53801;55.786;49.142;2022-11-20T01:54:58;10.85;;;2.83;;
66893;SDS011;53801;55.786;49.142;2022-11-20T01:57:29;8.63;;;2.77;;
66893;SDS011;53801;55.786;49.142;2022-11-20T02:00:00;8.82;;;2.83;;
66893;SDS011;53801;55.786;49.142;2022-11-20T02:02:25;8.93;;;2.53;;
66893;SDS011;53801;55.786;49.142;2022-11-20T02:04:51;9.20;;;2.95;;
66893;SDS011;53801;55.786;49.142;2022-11-20T02:07:24;8.60;;;2.83;;
66893;SDS011;53801;55.786;49.142;2022-11-20T02:10:17;8.25;;;2.22;;
66893;SDS011;53801;55.786;49.142;2022-11-20T02:12:43;9.60;;;2.50;;
66893;SDS011;53801;55.786;49.142;2022-11-20T02:15:48;8.13;;;3.05;;
66893;SDS011;53801;55.786;49.142;2022-11-20T02:18:14;8.97;;;2.23;;
66893;SDS011;53801;55.786;49.142;2022-11-20T02:20:44;12.32;;;3.38;;
66893;SDS011;53801;55.786;49.142;2022-11-20T02:25:48;8.93;;;2.60;;
66893;SDS011;53801;55.786;49.142;2022-11-20T02:28:16;9.48;;;3.05;;
66893;SDS011;53801;55.786;49.142;2022-11-20T02:30:42;7.70;;;2.65;;
66893;SDS011;53801;55.786;49.142;2022-11-20T02:33:08;10.57;;;2.57;;
66893;SDS011;53801;55.786;49.142;2022-11-20T02:38:01;13.20;;;2.63;;
66893;SDS011;53801;55.786;49.142;2022-11-20T02:40:27;7.20;;;2.72;;
66893;SDS011;53801;55.786;49.142;2022-11-20T02:42:54;7.07;;;2.27;;
66893;SDS011;53801;55.786;49.142;2022-11-20T02:45:19;12.05;;;3.33;;
66893;SDS011;53801;55.786;49.142;2022-11-20T02:47:45;9.67;;;2.57;;
66893;SDS011;53801;55.786;49.142;2022-11-20T02:50:12;8.73;;;2.35;;
66893;SDS011;53801;55.786;49.142;2022-11-20T02:52:43;8.75;;;2.90;;
66893;SDS011;53801;55.786;49.142;2022-11-20T02:55:11;8.45;;;3.40;;
66893;SDS011;53801;55.786;49.142;2022-11-20T02:57:46;7.43;;;2.33;;
66893;SDS011;53801;55.786;49.142;2022-11-20T03:00:14;11.95;;;2.90;;
66893;SDS011;53801;55.786;49.142;2022-11-20T03:02:52;6.65;;;2.08;;
66893;SDS011;53801;55.786;49.142;2022-11-20T03:05:40;7.53;;;2.50;;
66893;SDS011;53801;55.786;49.142;2022-11-20T03:10:41;8.20;;;2.50;;
66893;SDS011;53801;55.786;49.142;2022-11-20T03:13:33;10.88;;;2.58;;
66893;SDS011;53801;55.786;49.142;2022-11-20T03:19:00;6.30;;;1.93;;
66893;SDS011;53801;55.786;49.142;2022-11-20T03:21:51;6.82;;;1.98;;
66893;SDS011;53801;55.786;49.142;2022-11-20T03:26:54;8.00;;;2.15;;
66893;SDS011;53801;55.786;49.142;2022-11-20T03:29:37;7.10;;;2.33;;
66893;SDS011;53801;55.786;49.142;2022-11-20T03:35:34;10.98;;;2.42;;
66893;SDS011;53801;55.786;49.142;2022-11-20T03:38:10;10.02;;;2.30;;
66893;SDS011;53801;55.786;49.142;2022-11-20T03:40:48;8.50;;;2.93;;
66893;SDS011;53801;55.786;49.142;2022-11-20T03:46:06;11.68;;;2.63;;
66893;SDS011;53801;55.786;49.142;2022-11-20T03:54:00;12.48;;;2.55;;
66893;SDS011;53801;55.786;49.142;2022-11-20T03:56:29;7.50;;;2.97;;
66893;SDS011;53801;55.786;49.142;2022-11-20T03:59:02;9.38;;;3.38;;
66893;SDS011;53801;55.786;49.142;2022-11-20T04:01:45;7.30;;;2.92;;
66893;SDS011;53801;55.786;49.142;2022-11-20T04:04:21;10.53;;;3.30;;
66893;SDS011;53801;55.786;49.142;2022-11-20T04:06:52;12.35;;;2.97;;
66893;SDS011;53801;55.786;49.142;2022-11-20T04:09:36;7.68;;;2.40;;
66893;SDS011;53801;55.786;49.142;2022-11-20T04:12:24;7.47;;;3.08;;
66893;SDS011;53801;55.786;49.142;2022-11-20T04:14:54;6.43;;;2.10;;
66893;SDS011;53801;55.786;49.142;2022-11-20T04:17:31;13.00;;;3.35;;
66893;SDS011;53801;55.786;49.142;2022-11-20T04:22:49;7.57;;;1.80;;
66893;SDS011;53801;55.786;49.142;2022-11-20T04:27:52;11.90;;;2.85;;
66893;SDS011;53801;55.786;49.142;2022-11-20T04:30:17;14.20;;;2.97;;
66893;SDS011;53801;55.786;49.142;2022-11-20T04:32:51;13.10;;;3.35;;
66893;SDS011;53801;55.786;49.142;2022-11-20T04:35:22;8.07;;;2.80;;
66893;SDS011;53801;55.786;49.142;2022-11-20T04:37:52;10.90;;;2.90;;
66893;SDS011;53801;55.786;49.142;2022-11-20T04:40:36;13.50;;;3.53;;
66893;SDS011;53801;55.786;49.142;2022-11-20T04:43:07;7.20;;;2.35;;
66893;SDS011;53801;55.786;49.142;2022-11-20T04:45:35;12.27;;;3.67;;
66893;SDS011;53801;55.786;49.142;2022-11-20T04:48:01;13.07;;;3.17;;
66893;SDS011;53801;55.786;49.142;2022-11-20T04:50:44;10.60;;;3.35;;
66893;SDS011;53801;55.786;49.142;2022-11-20T04:55:52;15.95;;;3.55;;
66893;SDS011;53801;55.786;49.142;2022-11-20T04:58:54;8.55;;;2.67;;
66893;SDS011;53801;55.786;49.142;2022-11-20T05:02:00;11.00;;;3.17;;
66893;SDS011;53801;55.786;49.142;2022-11-20T05:04:40;13.45;;;3.22;;
66893;SDS011;53801;55.786;49.142;2022-11-20T05:07:08;12.77;;;3.35;;
66893;SDS011;53801;55.786;49.142;2022-11-20T05:12:40;8.90;;;3.08;;
66893;SDS011;53801;55.786;49.142;2022-11-20T05:15:08;12.40;;;3.50;;
66893;SDS011;53801;55.786;49.142;2022-11-20T05:23:16;16.50;;;5.22;;
66893;SDS011;53801;55.786;49.142;2022-11-20T05:25:51;15.30;;;3.70;;
66893;SDS011;53801;55.786;49.142;2022-11-20T05:28:34;8.68;;;2.92;;
66893;SDS011;53801;55.786;49.142;2022-11-20T05:31:05;15.70;;;3.35;;
66893;SDS011;53801;55.786;49.142;2022-11-20T05:33:32;13.63;;;4.18;;
66893;SDS011;53801;55.786;49.142;2022-11-20T05:36:00;16.00;;;4.13;;
66893;SDS011;53801;55.786;49.142;2022-11-20T05:41:21;14.18;;;4.97;;
66893;SDS011;53801;55.786;49.142;2022-11-20T05:44:05;13.73;;;4.27;;
66893;SDS011;53801;55.786;49.142;2022-11-20T05:46:42;20.13;;;4.68;;
66893;SDS011;53801;55.786;49.142;2022-11-20T05:55:28;11.80;;;4.37;;
66893;SDS011;53801;55.786;49.142;2022-11-20T06:01:02;16.33;;;5.07;;
66893;SDS011;53801;55.786;49.142;2022-11-20T06:06:20;15.10;;;4.97;;
66893;SDS011;53801;55.786;49.142;2022-11-20T06:09:35;16.25;;;4.88;;
66893;SDS011;53801;55.786;49.142;2022-11-20T06:12:11;13.90;;;4.15;;
66893;SDS011;53801;55.786;49.142;2022-11-20T06:14:44;12.82;;;4.10;;
66893;SDS011;53801;55.786;49.142;2022-11-20T06:20:30;20.07;;;5.00;;
66893;SDS011;53801;55.786;49.142;2022-11-20T06:23:29;16.63;;;4.47;;
66893;SDS011;53801;55.786;49.142;2022-11-20T06:29:02;12.77;;;4.47;;
66893;SDS011;53801;55.786;49.142;2022-11-20T06:31:35;12.98;;;4.25;;
66893;SDS011;53801;55.786;49.142;2022-11-20T06:43:28;18.48;;;5.38;;
66893;SDS011;53801;55.786;49.142;2022-11-20T06:46:14;13.23;;;3.80;;
66893;SDS011;53801;55.786;49.142;2022-11-20T06:48:50;16.02;;;4.95;;
66893;SDS011;53801;55.786;49.142;2022-11-20T06:56:28;23.25;;;5.10;;
66893;SDS011;53801;55.786;49.142;2022-11-20T06:59:19;17.17;;;5.87;;
66893;SDS011;53801;55.786;49.142;2022-11-20T07:05:07;15.25;;;5.40;;
66893;SDS011;53801;55.786;49.142;2022-11-20T07:10:44;11.77;;;2.70;;
66893;SDS011;53801;55.786;49.142;2022-11-20T07:13:48;17.13;;;4.57;;
66893;SDS011;53801;55.786;49.142;2022-11-20T07:16:24;14.95;;;5.45;;
66893;SDS011;53801;55.786;49.142;2022-11-20T07:19:02;20.67;;;5.75;;
66893;SDS011;53801;55.786;49.142;2022-11-20T07:21:56;15.38;;;4.78;;
66893;SDS011;53801;55.786;49.142;2022-11-20T07:24:53;18.65;;;6.00;;
66893;SDS011;53801;55.786;49.142;2022-11-20T07:28:17;16.80;;;4.97;;
66893;SDS011;53801;55.786;49.142;2022-11-20T07:38:02;27.33;;;6.13;;
66893;SDS011;53801;55.786;49.142;2022-11-20T07:41:23;23.15;;;5.35;;
66893;SDS011;53801;55.786;49.142;2022-11-20T07:56:13;16.70;;;5.03;;
66893;SDS011;53801;55.786;49.142;2022-11-20T08:13:36;17.40;;;5.07;;
66893;SDS011;53801;55.786;49.142;2022-11-20T08:19:26;18.58;;;5.35;;
66893;SDS011;53801;55.786;49.142;2022-11-20T08:22:03;25.27;;;6.28;;
66893;SDS011;53801;55.786;49.142;2022-11-20T08:24:29;20.48;;;5.90;;
66893;SDS011;53801;55.786;49.142;2022-11-20T08:27:04;21.87;;;5.80;;
66893;SDS011;53801;55.786;49.142;2022-11-20T08:29:48;23.20;;;6.35;;
66893;SDS011;53801;55.786;49.142;2022-11-20T08:33:00;19.65;;;5.80;;
66893;SDS011;53801;55.786;49.142;2022-11-20T08:43:36;18.85;;;5.05;;
66893;SDS011;53801;55.786;49.142;2022-11-20T08:46:35;25.13;;;6.72;;
66893;SDS011;53801;55.786;49.142;2022-11-20T08:52:15;22.38;;;5.68;;
66893;SDS011;53801;55.786;49.142;2022-11-20T08:58:03;20.70;;;5.93;;
66893;SDS011;53801;55.786;49.142;2022-11-20T09:00:31;22.95;;;6.40;;
66893;SDS011;53801;55.786;49.142;2022-11-20T09:03:30;19.17;;;6.47;;
66893;SDS011;53801;55.786;49.142;2022-11-20T09:06:15;29.80;;;8.35;;
66893;SDS011;53801;55.786;49.142;2022-11-20T10:24:25;18.27;;;5.63;;
66893;SDS011;53801;55.786;49.142;2022-11-20T10:35:39;22.15;;;6.93;;
66893;SDS011;53801;55.786;49.142;2022-11-20T10:38:09;23.27;;;6.50;;
66893;SDS011;53801;55.786;49.142;2022-11-20T10:40:38;23.45;;;6.53;;
66893;SDS011;53801;55.786;49.142;2022-11-20T10:48:25;20.85;;;6.97;;
66893;SDS011;53801;55.786;49.142;2022-11-20T10:51:07;18.73;;;6.43;;
66893;SDS011;53801;55.786;49.142;2022-11-20T11:08:05;22.15;;;7.30;;
66893;SDS011;53801;55.786;49.142;2022-11-20T11:16:51;22.45;;;6.47;;
66893;SDS011;53801;55.786;49.142;2022-11-20T11:19:59;17.73;;;5.30;;
66893;SDS011;53801;55.786;49.142;2022-11-20T11:22:48;22.85;;;6.22;;
66893;SDS011;53801;55.786;49.142;2022-11-20T11:30:58;23.95;;;7.47;;
66893;SDS011;53801;55.786;49.142;2022-11-20T11:36:57;22.88;;;7.50;;
66893;SDS011;53801;55.786;49.142;2022-11-20T11:51:20;28.17;;;7.43;;
66893;SDS011;53801;55.786;49.142;2022-11-20T11:54:23;21.93;;;6.97;;
66893;SDS011;53801;55.786;49.142;2022-11-20T12:04:57;22.75;;;6.82;;
66893;SDS011;53801;55.786;49.142;2022-11-20T12:19:54;22.60;;;6.97;;
66893;SDS011;53801;55.786;49.142;2022-11-20T12:44:44;19.35;;;6.15;;
66893;SDS011;53801;55.786;49.142;2022-11-20T13:17:54;24.15;;;7.75;;
66893;SDS011;53801;55.786;49.142;2022-11-20T13:23:51;21.10;;;7.40;;
66893;SDS011;53801;55.786;49.142;2022-11-20T13:32:53;40.20;;;13.60;;
66893;SDS011;53801;55.786;49.142;2022-11-20T13:35:40;28.67;;;10.88;;
66893;SDS011;53801;55.786;49.142;2022-11-20T13:38:39;26.43;;;9.87;;
66893;SDS011;53801;55.786;49.142;2022-11-20T13:40:57;30.25;;;11.23;;
66893;SDS011;53801;55.786;49.142;2022-11-20T13:43:41;26.08;;;9.70;;
66893;SDS011;53801;55.786;49.142;2022-11-20T13:49:34;14.25;;;4.68;;
66893;SDS011;53801;55.786;49.142;2022-11-20T14:09:03;16.92;;;6.20;;
66893;SDS011;53801;55.786;49.142;2022-11-20T15:37:39;16.67;;;5.90;;
66893;SDS011;53801;55.786;49.142;2022-11-20T15:59:42;17.63;;;5.65;;
66893;SDS011;53801;55.786;49.142;2022-11-20T16:17:14;17.13;;;5.97;;
66893;SDS011;53801;55.786;49.142;2022-11-20T16:19:57;13.57;;;4.53;;
66893;SDS011;53801;55.786;49.142;2022-11-20T16:25:36;19.50;;;5.28;;
66893;SDS011;53801;55.786;49.142;2022-11-20T16:31:23;20.10;;;6.10;;
66893;SDS011;53801;55.786;49.142;2022-11-20T16:40:02;21.00;;;6.20;;
66893;SDS011;53801;55.786;49.142;2022-11-20T16:45:15;18.63;;;5.53;;
66893;SDS011;53801;55.786;49.142;2022-11-20T16:47:43;19.13;;;5.90;;
66893;SDS011;53801;55.786;49.142;2022-11-20T16:50:29;15.85;;;5.60;;
66893;SDS011;53801;55.786;49.142;2022-11-20T16:56:07;16.00;;;6.03;;
66893;SDS011;53801;55.786;49.142;2022-11-20T17:01:16;23.40;;;6.63;;
66893;SDS011;53801;55.786;49.142;2022-11-20T17:04:14;21.63;;;6.28;;
66893;SDS011;53801;55.786;49.142;2022-11-20T17:06:49;17.67;;;5.30;;
66893;SDS011;53801;55.786;49.142;2022-11-20T17:18:13;17.42;;;5.90;;
66893;SDS011;53801;55.786;49.142;2022-11-20T17:20:58;20.55;;;6.47;;
66893;SDS011;53801;55.786;49.142;2022-11-20T17:23:58;17.75;;;5.82;;
66893;SDS011;53801;55.786;49.142;2022-11-20T17:35:33;19.97;;;5.90;;
66893;SDS011;53801;55.786;49.142;2022-11-20T17:38:07;17.00;;;6.20;;
66893;SDS011;53801;55.786;49.142;2022-11-20T17:40:52;18.92;;;6.47;;
66893;SDS011;53801;55.786;49.142;2022-11-20T17:43:41;19.70;;;6.67;;
66893;SDS011;53801;55.786;49.142;2022-11-20T17:46:22;37.47;;;9.63;;
66893;SDS011;53801;55.786;49.142;2022-11-20T17:51:38;26.55;;;8.43;;
66893;SDS011;53801;55.786;49.142;2022-11-20T17:54:06;25.65;;;8.27;;
66893;SDS011;53801;55.786;49.142;2022-11-20T17:56:32;23.70;;;6.87;;
66893;SDS011;53801;55.786;49.142;2022-11-20T18:02:27;19.67;;;6.22;;
66893;SDS011;53801;55.786;49.142;2022-11-20T18:04:53;21.63;;;6.67;;
66893;SDS011;53801;55.786;49.142;2022-11-20T18:13:25;16.48;;;5.40;;
66893;SDS011;53801;55.786;49.142;2022-11-20T18:16:23;17.38;;;6.40;;
66893;SDS011;53801;55.786;49.142;2022-11-20T18:25:02;17.63;;;6.28;;
66893;SDS011;53801;55.786;49.142;2022-11-20T18:27:28;17.52;;;6.80;;
66893;SDS011;53801;55.786;49.142;2022-11-20T18:32:42;17.50;;;5.75;;
66893;SDS011;53801;55.786;49.142;2022-11-20T18:35:07;19.10;;;6.40;;
66893;SDS011;53801;55.786;49.142;2022-11-20T18:37:33;20.75;;;6.97;;
66893;SDS011;53801;55.786;49.142;2022-11-20T18:39:59;19.73;;;6.80;;
66893;SDS011;53801;55.786;49.142;2022-11-20T18:42:36;15.57;;;5.90;;
66893;SDS011;53801;55.786;49.142;2022-11-20T18:45:23;14.20;;;5.43;;
66893;SDS011;53801;55.786;49.142;2022-11-20T18:47:51;16.77;;;6.63;;
66893;SDS011;53801;55.786;49.142;2022-11-20T18:50:17;18.20;;;6.10;;
66893;SDS011;53801;55.786;49.142;2022-11-20T19:04:14;15.93;;;5.70;;
66893;SDS011;53801;55.786;49.142;2022-11-20T19:06:46;16.23;;;5.82;;
66893;SDS011;53801;55.786;49.142;2022-11-20T19:09:17;17.95;;;6.15;;
66893;SDS011;53801;55.786;49.142;2022-11-20T19:11:47;14.70;;;5.82;;
66893;SDS011;53801;55.786;49.142;2022-11-20T19:22:50;18.83;;;5.85;;
66893;SDS011;53801;55.786;49.142;2022-11-20T19:25:21;15.83;;;5.43;;
66893;SDS011;53801;55.786;49.142;2022-11-20T19:27:51;14.55;;;4.75;;
66893;SDS011;53801;55.786;49.142;2022-11-20T19:30:26;21.13;;;6.28;;
66893;SDS011;53801;55.786;49.142;2022-11-20T19:33:29;17.20;;;5.95;;
66893;SDS011;53801;55.786;49.142;2022-11-20T19:36:06;17.67;;;6.05;;
66893;SDS011;53801;55.786;49.142;2022-11-20T19:38:40;16.73;;;5.93;;
66893;SDS011;53801;55.786;49.142;2022-11-20T19:44:14;30.33;;;7.28;;
66893;SDS011;53801;55.786;49.142;2022-11-20T19:46:52;15.40;;;5.32;;
66893;SDS011;53801;55.786;49.142;2022-11-20T19:50:00;14.52;;;5.57;;
66893;SDS011;53801;55.786;49.142;2022-11-20T19:53:05;19.73;;;6.10;;
66893;SDS011;53801;55.786;49.142;2022-11-20T19:56:00;19.48;;;5.80;;
66893;SDS011;53801;55.786;49.142;2022-11-20T19:58:28;16.10;;;5.93;;
66893;SDS011;53801;55.786;49.142;2022-11-20T20:01:04;19.08;;;6.20;;
66893;SDS011;53801;55.786;49.142;2022-11-20T20:03:54;22.35;;;5.90;;
66893;SDS011;53801;55.786;49.142;2022-11-20T20:09:28;16.13;;;4.75;;
66893;SDS011;53801;55.786;49.142;2022-11-20T20:11:56;19.25;;;6.03;;
66893;SDS011;53801;55.786;49.142;2022-11-20T20:14:22;15.60;;;5.50;;
66893;SDS011;53801;55.786;49.142;2022-11-20T20:16:50;18.48;;;6.03;;
66893;SDS011;53801;55.786;49.142;2022-11-20T20:19:15;16.40;;;4.67;;
66893;SDS011;53801;55.786;49.142;2022-11-20T20:21:41;20.17;;;6.07;;
66893;SDS011;53801;55.786;49.142;2022-11-20T20:24:06;17.02;;;5.50;;
66893;SDS011;53801;55.786;49.142;2022-11-20T20:26:53;15.73;;;5.13;;
66893;SDS011;53801;55.786;49.142;2022-11-20T20:29:32;15.18;;;4.85;;
66893;SDS011;53801;55.786;49.142;2022-11-20T20:32:04;12.88;;;5.93;;
66893;SDS011;53801;55.786;49.142;2022-11-20T20:37:59;14.07;;;5.27;;
66893;SDS011;53801;55.786;49.142;2022-11-20T20:43:28;15.68;;;5.63;;
66893;SDS011;53801;55.786;49.142;2022-11-20T20:45:56;16.67;;;5.82;;
66893;SDS011;53801;55.786;49.142;2022-11-20T20:54:11;18.85;;;5.07;;
66893;SDS011;53801;55.786;49.142;2022-11-20T20:57:25;14.15;;;4.85;;
66893;SDS011;53801;55.786;49.142;2022-11-20T21:00:31;14.77;;;5.45;;
66893;SDS011;53801;55.786;49.142;2022-11-20T21:03:05;14.73;;;5.35;;
66893;SDS011;53801;55.786;49.142;2022-11-20T21:05:48;15.37;;;5.57;;
66893;SDS011;53801;55.786;49.142;2022-11-20T21:08:55;14.23;;;5.15;;
66893;SDS011;53801;55.786;49.142;2022-11-20T21:11:28;18.00;;;5.72;;
66893;SDS011;53801;55.786;49.142;2022-11-20T21:17:09;20.48;;;5.95;;
66893;SDS011;53801;55.786;49.142;2022-11-20T21:19:46;18.00;;;5.80;;
66893;SDS011;53801;55.786;49.142;2022-11-20T21:22:30;17.08;;;6.18;;
66893;SDS011;53801;55.786;49.142;2022-11-20T21:25:06;19.30;;;5.90;;
66893;SDS011;53801;55.786;49.142;2022-11-20T21:30:22;16.77;;;6.25;;
66893;SDS011;53801;55.786;49.142;2022-11-20T21:35:39;11.75;;;4.50;;
66893;SDS011;53801;55.786;49.142;2022-11-20T21:46:47;15.82;;;5.68;;
66893;SDS011;53801;55.786;49.142;2022-11-20T21:52:09;16.07;;;5.53;;
66893;SDS011;53801;55.786;49.142;2022-11-20T21:54:36;17.40;;;5.65;;
66893;SDS011;53801;55.786;49.142;2022-11-20T21:57:18;18.20;;;5.57;;
66893;SDS011;53801;55.786;49.142;2022-11-20T22:00:16;14.32;;;4.78;;
66893;SDS011;53801;55.786;49.142;2022-11-20T22:02:49;15.68;;;5.35;;
66893;SDS011;53801;55.786;49.142;2022-11-20T22:05:17;17.17;;;4.97;;
66893;SDS011;53801;55.786;49.142;2022-11-20T22:07:54;18.52;;;5.45;;
66893;SDS011;53801;55.786;49.142;2022-11-20T22:10:24;13.45;;;4.97;;
66893;SDS011;53801;55.786;49.142;2022-11-20T22:18:42;16.00;;;5.37;;
66893;SDS011;53801;55.786;49.142;2022-11-20T22:21:12;15.45;;;5.57;;
66893;SDS011;53801;55.786;49.142;2022-11-20T22:23:41;15.50;;;5.50;;
66893;SDS011;53801;55.786;49.142;2022-11-20T22:26:10;18.80;;;5.78;;
66893;SDS011;53801;55.786;49.142;2022-11-20T22:28:36;17.77;;;6.03;;
66893;SDS011;53801;55.786;49.142;2022-11-20T22:31:05;16.50;;;5.53;;
66893;SDS011;53801;55.786;49.142;2022-11-20T22:36:09;18.60;;;6.07;;
66893;SDS011;53801;55.786;49.142;2022-11-20T22:38:37;15.88;;;5.55;;
66893;SDS011;53801;55.786;49.142;2022-11-20T22:41:11;19.53;;;6.00;;
66893;SDS011;53801;55.786;49.142;2022-11-20T22:43:38;17.60;;;5.93;;
66893;SDS011;53801;55.786;49.142;2022-11-20T22:46:07;17.17;;;5.85;;
66893;SDS011;53801;55.786;49.142;2022-11-20T22:48:34;19.17;;;5.60;;
66893;SDS011;53801;55.786;49.142;2022-11-20T22:51:04;18.75;;;5.68;;
66893;SDS011;53801;55.786;49.142;2022-11-20T22:53:34;15.37;;;6.27;;
66893;SDS011;53801;55.786;49.142;2022-11-20T22:56:03;18.55;;;5.78;;
66893;SDS011;53801;55.786;49.142;2022-11-20T22:59:04;19.58;;;6.35;;
66893;SDS011;53801;55.786;49.142;2022-11-20T23:04:38;16.50;;;5.60;;
66893;SDS011;53801;55.786;49.142;2022-11-20T23:07:20;17.00;;;5.37;;
66893;SDS011;53801;55.786;49.142;2022-11-20T23:09:56;15.75;;;5.47;;
66893;SDS011;53801;55.786;49.142;2022-11-20T23:12:34;15.32;;;5.93;;
66893;SDS011;53801;55.786;49.142;2022-11-20T23:15:02;20.88;;;6.05;;
66893;SDS011;53801;55.786;49.142;2022-11-20T23:17:42;19.38;;;6.22;;
66893;SDS011;53801;55.786;49.142;2022-11-20T23:20:10;18.00;;;5.87;;
66893;SDS011;53801;55.786;49.142;2022-11-20T23:22:46;19.13;;;5.43;;
66893;SDS011;53801;55.786;49.142;2022-11-20T23:25:20;20.67;;;6.55;;
66893;SDS011;53801;55.786;49.142;2022-11-20T23:27:51;16.27;;;6.25;;
66893;SDS011;53801;55.786;49.142;2022-11-20T23:30:37;14.48;;;5.88;;
66893;SDS011;53801;55.786;49.142;2022-11-20T23:33:02;15.80;;;6.03;;
66893;SDS011;53801;55.786;49.142;2022-11-20T23:35:37;19.65;;;6.35;;
66893;SDS011;53801;55.786;49.142;2022-11-20T23:38:23;15.93;;;5.78;;
66893;SDS011;53801;55.786;49.142;2022-11-20T23:41:09;15.83;;;5.67;;
66893;SDS011;53801;55.786;49.142;2022-11-20T23:43:44;16.25;;;6.20;;
66893;SDS011;53801;55.786;49.142;2022-11-20T23:46:10;16.67;;;5.65;;
66893;SDS011;53801;55.786;49.142;2022-11-20T23:54:13;18.52;;;5.90;;
66893;SDS011;53801;55.786;49.142;2022-11-20T23:56:41;19.85;;;6.63;;
66893;SDS011;53801;55.786;49.142;2022-11-20T23:59:09;20.73;;;6.40;;
